sensor_id;sensor_type;location;lat;lon;timestamp;P1;durP1;ratioP1;P2;durP2;ratioP2
18387;SDS011;9320;50.256;19.026;2022-12-11T00:00:55;33.77;;;16.53;;
18387;SDS011;9320;50.256;19.026;2022-12-11T00:03:23;33.50;;;15.70;;
18387;SDS011;9320;50.256;19.026;2022-12-11T00:05:51;38.13;;;16.67;;
18387;SDS011;9320;50.256;19.026;2022-12-11T00:08:19;30.60;;;14.87;;
18387;SDS011;9320;50.256;19.026;2022-12-11T00:10:47;30.93;;;16.47;;
18387;SDS011;9320;50.256;19.026;2022-12-11T00:13:16;31.43;;;15.70;;
18387;SDS011;9320;50.256;19.026;2022-12-11T00:15:45;34.43;;;16.43;;
18387;SDS011;9320;50.256;19.026;2022-12-11T00:18:13;29.83;;;14.70;;
18387;SDS011;9320;50.256;19.026;2022-12-11T00:20:41;28.37;;;15.37;;
18387;SDS011;9320;50.256;19.026;2022-12-11T00:23:09;28.17;;;14.93;;
18387;SDS011;9320;50.256;19.026;2022-12-11T00:25:39;27.83;;;15.00;;
18387;SDS011;9320;50.256;19.026;2022-12-11T00:28:09;27.07;;;13.97;;
18387;SDS011;9320;50.256;19.026;2022-12-11T00:30:38;24.93;;;14.03;;
18387;SDS011;9320;50.256;19.026;2022-12-11T00:33:08;27.27;;;14.37;;
18387;SDS011;9320;50.256;19.026;2022-12-11T00:35:37;26.03;;;14.13;;
18387;SDS011;9320;50.256;19.026;2022-12-11T00:38:05;26.87;;;14.53;;
18387;SDS011;9320;50.256;19.026;2022-12-11T00:40:33;23.93;;;13.20;;
18387;SDS011;9320;50.256;19.026;2022-12-11T00:43:02;25.33;;;13.50;;
18387;SDS011;9320;50.256;19.026;2022-12-11T00:45:33;24.47;;;13.70;;
18387;SDS011;9320;50.256;19.026;2022-12-11T00:48:02;26.87;;;14.47;;
18387;SDS011;9320;50.256;19.026;2022-12-11T00:50:32;29.03;;;15.23;;
18387;SDS011;9320;50.256;19.026;2022-12-11T00:53:00;29.07;;;14.57;;
18387;SDS011;9320;50.256;19.026;2022-12-11T00:55:29;26.73;;;14.07;;
18387;SDS011;9320;50.256;19.026;2022-12-11T00:57:57;29.53;;;14.53;;
18387;SDS011;9320;50.256;19.026;2022-12-11T01:00:25;27.30;;;13.93;;
18387;SDS011;9320;50.256;19.026;2022-12-11T01:02:53;27.43;;;14.40;;
18387;SDS011;9320;50.256;19.026;2022-12-11T01:05:21;28.93;;;13.90;;
18387;SDS011;9320;50.256;19.026;2022-12-11T01:07:50;23.53;;;13.60;;
18387;SDS011;9320;50.256;19.026;2022-12-11T01:10:18;26.60;;;13.20;;
18387;SDS011;9320;50.256;19.026;2022-12-11T01:12:54;26.30;;;14.37;;
18387;SDS011;9320;50.256;19.026;2022-12-11T01:15:23;27.30;;;14.13;;
18387;SDS011;9320;50.256;19.026;2022-12-11T01:17:52;26.50;;;13.77;;
18387;SDS011;9320;50.256;19.026;2022-12-11T01:20:21;25.37;;;13.73;;
18387;SDS011;9320;50.256;19.026;2022-12-11T01:22:52;29.87;;;14.43;;
18387;SDS011;9320;50.256;19.026;2022-12-11T01:25:21;25.50;;;14.33;;
18387;SDS011;9320;50.256;19.026;2022-12-11T01:27:50;25.90;;;13.97;;
18387;SDS011;9320;50.256;19.026;2022-12-11T01:30:19;34.47;;;15.07;;
18387;SDS011;9320;50.256;19.026;2022-12-11T01:32:50;37.53;;;15.70;;
18387;SDS011;9320;50.256;19.026;2022-12-11T01:35:18;35.83;;;15.97;;
18387;SDS011;9320;50.256;19.026;2022-12-11T01:37:46;33.47;;;14.73;;
18387;SDS011;9320;50.256;19.026;2022-12-11T01:40:16;33.63;;;15.60;;
18387;SDS011;9320;50.256;19.026;2022-12-11T01:42:45;32.77;;;15.20;;
18387;SDS011;9320;50.256;19.026;2022-12-11T01:48:00;33.80;;;16.13;;
18387;SDS011;9320;50.256;19.026;2022-12-11T01:50:34;32.23;;;15.90;;
18387;SDS011;9320;50.256;19.026;2022-12-11T01:53:06;34.47;;;15.90;;
18387;SDS011;9320;50.256;19.026;2022-12-11T01:55:38;33.03;;;15.67;;
18387;SDS011;9320;50.256;19.026;2022-12-11T01:58:07;33.00;;;15.60;;
18387;SDS011;9320;50.256;19.026;2022-12-11T02:00:38;32.47;;;16.23;;
18387;SDS011;9320;50.256;19.026;2022-12-11T02:03:06;32.47;;;15.03;;
18387;SDS011;9320;50.256;19.026;2022-12-11T02:05:35;34.13;;;15.87;;
18387;SDS011;9320;50.256;19.026;2022-12-11T02:08:03;36.70;;;16.30;;
18387;SDS011;9320;50.256;19.026;2022-12-11T02:10:42;30.27;;;15.10;;
18387;SDS011;9320;50.256;19.026;2022-12-11T02:13:25;37.03;;;16.33;;
18387;SDS011;9320;50.256;19.026;2022-12-11T02:16:03;34.30;;;15.50;;
18387;SDS011;9320;50.256;19.026;2022-12-11T02:18:38;39.73;;;16.43;;
18387;SDS011;9320;50.256;19.026;2022-12-11T02:21:15;37.00;;;16.53;;
18387;SDS011;9320;50.256;19.026;2022-12-11T02:29:59;35.40;;;16.83;;
18387;SDS011;9320;50.256;19.026;2022-12-11T02:32:31;45.97;;;18.30;;
18387;SDS011;9320;50.256;19.026;2022-12-11T02:35:04;37.10;;;17.30;;
18387;SDS011;9320;50.256;19.026;2022-12-11T02:37:37;42.17;;;18.37;;
18387;SDS011;9320;50.256;19.026;2022-12-11T02:40:08;47.33;;;19.47;;
18387;SDS011;9320;50.256;19.026;2022-12-11T02:42:41;43.10;;;17.40;;
18387;SDS011;9320;50.256;19.026;2022-12-11T02:45:15;41.70;;;18.00;;
18387;SDS011;9320;50.256;19.026;2022-12-11T02:47:45;40.53;;;17.97;;
18387;SDS011;9320;50.256;19.026;2022-12-11T02:50:17;38.13;;;17.17;;
18387;SDS011;9320;50.256;19.026;2022-12-11T02:52:49;40.20;;;18.50;;
18387;SDS011;9320;50.256;19.026;2022-12-11T02:55:21;38.67;;;17.17;;
18387;SDS011;9320;50.256;19.026;2022-12-11T02:57:51;42.00;;;18.27;;
18387;SDS011;9320;50.256;19.026;2022-12-11T03:00:24;44.47;;;18.33;;
18387;SDS011;9320;50.256;19.026;2022-12-11T03:02:52;44.03;;;18.87;;
18387;SDS011;9320;50.256;19.026;2022-12-11T03:05:20;42.23;;;18.40;;
18387;SDS011;9320;50.256;19.026;2022-12-11T03:07:48;41.47;;;17.00;;
18387;SDS011;9320;50.256;19.026;2022-12-11T03:10:16;42.20;;;17.77;;
18387;SDS011;9320;50.256;19.026;2022-12-11T03:12:46;40.57;;;17.33;;
18387;SDS011;9320;50.256;19.026;2022-12-11T03:15:19;40.83;;;17.17;;
18387;SDS011;9320;50.256;19.026;2022-12-11T03:17:53;45.47;;;17.00;;
18387;SDS011;9320;50.256;19.026;2022-12-11T03:20:30;38.83;;;16.40;;
18387;SDS011;9320;50.256;19.026;2022-12-11T03:23:04;42.67;;;17.40;;
18387;SDS011;9320;50.256;19.026;2022-12-11T03:25:43;39.93;;;15.70;;
18387;SDS011;9320;50.256;19.026;2022-12-11T03:28:17;40.67;;;17.87;;
18387;SDS011;9320;50.256;19.026;2022-12-11T03:30:48;47.20;;;17.57;;
18387;SDS011;9320;50.256;19.026;2022-12-11T03:33:21;48.47;;;19.67;;
18387;SDS011;9320;50.256;19.026;2022-12-11T03:35:53;51.40;;;20.37;;
18387;SDS011;9320;50.256;19.026;2022-12-11T03:38:24;49.90;;;20.47;;
18387;SDS011;9320;50.256;19.026;2022-12-11T03:40:59;49.40;;;20.73;;
18387;SDS011;9320;50.256;19.026;2022-12-11T03:43:29;61.37;;;21.87;;
18387;SDS011;9320;50.256;19.026;2022-12-11T03:45:58;50.50;;;20.90;;
18387;SDS011;9320;50.256;19.026;2022-12-11T03:48:29;49.33;;;19.77;;
18387;SDS011;9320;50.256;19.026;2022-12-11T03:51:03;49.50;;;21.47;;
18387;SDS011;9320;50.256;19.026;2022-12-11T03:53:33;50.80;;;20.33;;
18387;SDS011;9320;50.256;19.026;2022-12-11T03:56:02;44.87;;;19.57;;
18387;SDS011;9320;50.256;19.026;2022-12-11T03:58:32;55.23;;;21.93;;
18387;SDS011;9320;50.256;19.026;2022-12-11T04:01:00;51.03;;;21.57;;
18387;SDS011;9320;50.256;19.026;2022-12-11T04:03:29;52.23;;;22.07;;
18387;SDS011;9320;50.256;19.026;2022-12-11T04:05:57;57.33;;;24.87;;
18387;SDS011;9320;50.256;19.026;2022-12-11T04:08:25;56.27;;;23.27;;
18387;SDS011;9320;50.256;19.026;2022-12-11T04:10:53;53.23;;;22.00;;
18387;SDS011;9320;50.256;19.026;2022-12-11T04:13:35;52.10;;;22.27;;
18387;SDS011;9320;50.256;19.026;2022-12-11T04:16:04;55.57;;;22.67;;
18387;SDS011;9320;50.256;19.026;2022-12-11T04:18:33;48.30;;;20.90;;
18387;SDS011;9320;50.256;19.026;2022-12-11T04:21:18;49.23;;;20.73;;
18387;SDS011;9320;50.256;19.026;2022-12-11T04:24:05;46.23;;;19.33;;
18387;SDS011;9320;50.256;19.026;2022-12-11T04:26:43;45.83;;;20.13;;
18387;SDS011;9320;50.256;19.026;2022-12-11T04:29:12;46.93;;;20.37;;
18387;SDS011;9320;50.256;19.026;2022-12-11T04:31:40;49.43;;;20.33;;
18387;SDS011;9320;50.256;19.026;2022-12-11T04:34:10;48.03;;;19.83;;
18387;SDS011;9320;50.256;19.026;2022-12-11T04:36:38;50.80;;;20.70;;
18387;SDS011;9320;50.256;19.026;2022-12-11T04:39:06;50.60;;;21.57;;
18387;SDS011;9320;50.256;19.026;2022-12-11T04:41:34;52.87;;;22.80;;
18387;SDS011;9320;50.256;19.026;2022-12-11T04:44:02;55.47;;;23.07;;
18387;SDS011;9320;50.256;19.026;2022-12-11T04:46:30;49.93;;;23.13;;
18387;SDS011;9320;50.256;19.026;2022-12-11T04:48:59;54.53;;;23.77;;
18387;SDS011;9320;50.256;19.026;2022-12-11T04:51:29;53.83;;;22.80;;
18387;SDS011;9320;50.256;19.026;2022-12-11T04:53:57;49.10;;;22.13;;
18387;SDS011;9320;50.256;19.026;2022-12-11T04:56:25;50.23;;;21.93;;
18387;SDS011;9320;50.256;19.026;2022-12-11T04:58:53;51.60;;;23.33;;
18387;SDS011;9320;50.256;19.026;2022-12-11T05:01:21;56.43;;;24.73;;
18387;SDS011;9320;50.256;19.026;2022-12-11T05:03:50;46.43;;;20.10;;
18387;SDS011;9320;50.256;19.026;2022-12-11T05:06:18;51.87;;;22.53;;
18387;SDS011;9320;50.256;19.026;2022-12-11T05:08:47;46.93;;;21.87;;
18387;SDS011;9320;50.256;19.026;2022-12-11T05:11:16;48.43;;;22.50;;
18387;SDS011;9320;50.256;19.026;2022-12-11T05:13:44;44.17;;;20.73;;
18387;SDS011;9320;50.256;19.026;2022-12-11T05:16:13;48.53;;;22.17;;
18387;SDS011;9320;50.256;19.026;2022-12-11T05:18:42;49.37;;;21.90;;
18387;SDS011;9320;50.256;19.026;2022-12-11T05:21:11;42.37;;;21.27;;
18387;SDS011;9320;50.256;19.026;2022-12-11T05:23:41;51.83;;;23.03;;
18387;SDS011;9320;50.256;19.026;2022-12-11T05:26:11;43.53;;;20.13;;
18387;SDS011;9320;50.256;19.026;2022-12-11T05:28:42;44.90;;;20.53;;
18387;SDS011;9320;50.256;19.026;2022-12-11T05:31:12;43.97;;;19.73;;
18387;SDS011;9320;50.256;19.026;2022-12-11T05:33:42;44.93;;;19.43;;
18387;SDS011;9320;50.256;19.026;2022-12-11T05:36:12;45.53;;;20.27;;
18387;SDS011;9320;50.256;19.026;2022-12-11T05:38:43;44.73;;;21.07;;
18387;SDS011;9320;50.256;19.026;2022-12-11T05:41:14;47.50;;;21.43;;
18387;SDS011;9320;50.256;19.026;2022-12-11T05:43:43;40.87;;;19.63;;
18387;SDS011;9320;50.256;19.026;2022-12-11T05:46:12;39.80;;;19.37;;
18387;SDS011;9320;50.256;19.026;2022-12-11T05:48:42;44.70;;;19.93;;
18387;SDS011;9320;50.256;19.026;2022-12-11T05:51:11;42.17;;;18.10;;
18387;SDS011;9320;50.256;19.026;2022-12-11T05:53:41;41.10;;;19.70;;
18387;SDS011;9320;50.256;19.026;2022-12-11T05:56:11;41.27;;;18.83;;
18387;SDS011;9320;50.256;19.026;2022-12-11T05:58:43;40.63;;;19.30;;
18387;SDS011;9320;50.256;19.026;2022-12-11T06:01:14;37.40;;;19.07;;
18387;SDS011;9320;50.256;19.026;2022-12-11T06:03:44;42.07;;;18.67;;
18387;SDS011;9320;50.256;19.026;2022-12-11T06:06:12;44.33;;;20.57;;
18387;SDS011;9320;50.256;19.026;2022-12-11T06:08:40;43.77;;;21.37;;
18387;SDS011;9320;50.256;19.026;2022-12-11T06:11:11;39.33;;;18.70;;
18387;SDS011;9320;50.256;19.026;2022-12-11T06:13:47;42.23;;;19.47;;
18387;SDS011;9320;50.256;19.026;2022-12-11T06:16:15;33.57;;;16.90;;
18387;SDS011;9320;50.256;19.026;2022-12-11T06:18:43;39.27;;;18.10;;
18387;SDS011;9320;50.256;19.026;2022-12-11T06:21:12;38.13;;;18.67;;
18387;SDS011;9320;50.256;19.026;2022-12-11T06:23:41;38.73;;;19.20;;
18387;SDS011;9320;50.256;19.026;2022-12-11T06:26:10;42.37;;;19.13;;
18387;SDS011;9320;50.256;19.026;2022-12-11T06:28:40;41.47;;;19.37;;
18387;SDS011;9320;50.256;19.026;2022-12-11T06:31:08;36.67;;;18.20;;
18387;SDS011;9320;50.256;19.026;2022-12-11T06:33:36;37.87;;;17.93;;
18387;SDS011;9320;50.256;19.026;2022-12-11T06:36:06;40.63;;;18.43;;
18387;SDS011;9320;50.256;19.026;2022-12-11T06:38:35;46.23;;;20.10;;
18387;SDS011;9320;50.256;19.026;2022-12-11T06:41:04;41.17;;;18.70;;
18387;SDS011;9320;50.256;19.026;2022-12-11T06:43:35;40.00;;;18.60;;
18387;SDS011;9320;50.256;19.026;2022-12-11T06:46:05;42.97;;;18.03;;
18387;SDS011;9320;50.256;19.026;2022-12-11T06:48:35;41.37;;;18.83;;
18387;SDS011;9320;50.256;19.026;2022-12-11T06:51:06;42.57;;;18.43;;
18387;SDS011;9320;50.256;19.026;2022-12-11T06:53:35;49.20;;;20.63;;
18387;SDS011;9320;50.256;19.026;2022-12-11T06:56:05;47.00;;;21.00;;
18387;SDS011;9320;50.256;19.026;2022-12-11T06:58:36;52.83;;;21.57;;
18387;SDS011;9320;50.256;19.026;2022-12-11T07:01:11;47.77;;;20.43;;
18387;SDS011;9320;50.256;19.026;2022-12-11T07:03:42;43.60;;;19.80;;
18387;SDS011;9320;50.256;19.026;2022-12-11T07:06:10;49.77;;;21.57;;
18387;SDS011;9320;50.256;19.026;2022-12-11T07:08:39;43.10;;;20.40;;
18387;SDS011;9320;50.256;19.026;2022-12-11T07:11:08;43.90;;;20.47;;
18387;SDS011;9320;50.256;19.026;2022-12-11T07:13:39;43.23;;;19.50;;
18387;SDS011;9320;50.256;19.026;2022-12-11T07:16:08;45.20;;;20.13;;
18387;SDS011;9320;50.256;19.026;2022-12-11T07:18:38;50.50;;;22.10;;
18387;SDS011;9320;50.256;19.026;2022-12-11T07:21:08;51.03;;;22.50;;
18387;SDS011;9320;50.256;19.026;2022-12-11T07:23:38;47.03;;;21.10;;
18387;SDS011;9320;50.256;19.026;2022-12-11T07:26:06;43.73;;;19.83;;
18387;SDS011;9320;50.256;19.026;2022-12-11T07:28:36;50.30;;;21.53;;
18387;SDS011;9320;50.256;19.026;2022-12-11T07:31:05;48.13;;;21.13;;
18387;SDS011;9320;50.256;19.026;2022-12-11T07:33:34;45.83;;;20.80;;
18387;SDS011;9320;50.256;19.026;2022-12-11T07:36:03;39.77;;;19.40;;
18387;SDS011;9320;50.256;19.026;2022-12-11T07:38:33;39.73;;;18.70;;
18387;SDS011;9320;50.256;19.026;2022-12-11T07:41:01;39.07;;;19.00;;
18387;SDS011;9320;50.256;19.026;2022-12-11T07:43:30;35.77;;;18.87;;
18387;SDS011;9320;50.256;19.026;2022-12-11T07:45:59;36.77;;;17.07;;
18387;SDS011;9320;50.256;19.026;2022-12-11T07:48:29;38.27;;;19.47;;
18387;SDS011;9320;50.256;19.026;2022-12-11T07:51:06;40.40;;;19.13;;
18387;SDS011;9320;50.256;19.026;2022-12-11T07:53:35;33.03;;;17.37;;
18387;SDS011;9320;50.256;19.026;2022-12-11T07:56:03;36.37;;;18.50;;
18387;SDS011;9320;50.256;19.026;2022-12-11T07:58:32;36.83;;;18.93;;
18387;SDS011;9320;50.256;19.026;2022-12-11T08:01:01;37.60;;;17.53;;
18387;SDS011;9320;50.256;19.026;2022-12-11T08:03:30;36.17;;;19.07;;
18387;SDS011;9320;50.256;19.026;2022-12-11T08:05:58;40.23;;;17.77;;
18387;SDS011;9320;50.256;19.026;2022-12-11T08:08:26;31.77;;;17.20;;
18387;SDS011;9320;50.256;19.026;2022-12-11T08:10:54;34.60;;;18.53;;
18387;SDS011;9320;50.256;19.026;2022-12-11T08:13:22;35.63;;;18.40;;
18387;SDS011;9320;50.256;19.026;2022-12-11T08:15:50;36.67;;;18.40;;
18387;SDS011;9320;50.256;19.026;2022-12-11T08:18:20;37.80;;;20.60;;
18387;SDS011;9320;50.256;19.026;2022-12-11T08:20:49;36.23;;;19.87;;
18387;SDS011;9320;50.256;19.026;2022-12-11T08:23:17;41.13;;;20.10;;
18387;SDS011;9320;50.256;19.026;2022-12-11T08:25:45;38.40;;;19.60;;
18387;SDS011;9320;50.256;19.026;2022-12-11T08:28:13;42.63;;;21.33;;
18387;SDS011;9320;50.256;19.026;2022-12-11T08:30:41;36.50;;;19.23;;
18387;SDS011;9320;50.256;19.026;2022-12-11T08:33:09;42.07;;;20.00;;
18387;SDS011;9320;50.256;19.026;2022-12-11T08:35:37;37.03;;;20.00;;
18387;SDS011;9320;50.256;19.026;2022-12-11T08:38:07;36.97;;;19.53;;
18387;SDS011;9320;50.256;19.026;2022-12-11T08:40:35;37.53;;;20.93;;
18387;SDS011;9320;50.256;19.026;2022-12-11T08:43:03;42.03;;;21.30;;
18387;SDS011;9320;50.256;19.026;2022-12-11T08:45:31;38.63;;;21.00;;
18387;SDS011;9320;50.256;19.026;2022-12-11T08:47:59;38.13;;;21.07;;
18387;SDS011;9320;50.256;19.026;2022-12-11T08:50:27;42.33;;;21.73;;
18387;SDS011;9320;50.256;19.026;2022-12-11T08:52:55;37.37;;;21.20;;
18387;SDS011;9320;50.256;19.026;2022-12-11T08:55:25;42.13;;;20.70;;
18387;SDS011;9320;50.256;19.026;2022-12-11T08:57:53;38.97;;;21.57;;
18387;SDS011;9320;50.256;19.026;2022-12-11T09:00:21;37.57;;;19.97;;
18387;SDS011;9320;50.256;19.026;2022-12-11T09:02:49;37.47;;;20.03;;
18387;SDS011;9320;50.256;19.026;2022-12-11T09:05:17;36.30;;;20.27;;
18387;SDS011;9320;50.256;19.026;2022-12-11T09:07:45;41.43;;;22.53;;
18387;SDS011;9320;50.256;19.026;2022-12-11T09:10:13;40.83;;;22.57;;
18387;SDS011;9320;50.256;19.026;2022-12-11T09:12:43;46.60;;;24.60;;
18387;SDS011;9320;50.256;19.026;2022-12-11T09:15:11;34.83;;;20.20;;
18387;SDS011;9320;50.256;19.026;2022-12-11T09:17:39;37.30;;;22.13;;
18387;SDS011;9320;50.256;19.026;2022-12-11T09:20:07;41.90;;;22.57;;
18387;SDS011;9320;50.256;19.026;2022-12-11T09:22:35;40.67;;;20.97;;
18387;SDS011;9320;50.256;19.026;2022-12-11T09:25:04;38.93;;;21.50;;
18387;SDS011;9320;50.256;19.026;2022-12-11T09:27:33;41.60;;;21.87;;
18387;SDS011;9320;50.256;19.026;2022-12-11T09:30:02;40.87;;;22.57;;
18387;SDS011;9320;50.256;19.026;2022-12-11T09:32:31;40.80;;;22.93;;
18387;SDS011;9320;50.256;19.026;2022-12-11T09:34:59;42.20;;;23.47;;
18387;SDS011;9320;50.256;19.026;2022-12-11T09:37:27;39.37;;;22.30;;
18387;SDS011;9320;50.256;19.026;2022-12-11T09:39:55;40.43;;;23.67;;
18387;SDS011;9320;50.256;19.026;2022-12-11T09:42:30;47.97;;;24.87;;
18387;SDS011;9320;50.256;19.026;2022-12-11T09:45:09;48.30;;;25.37;;
18387;SDS011;9320;50.256;19.026;2022-12-11T09:47:41;41.27;;;23.30;;
18387;SDS011;9320;50.256;19.026;2022-12-11T09:50:12;45.30;;;25.53;;
18387;SDS011;9320;50.256;19.026;2022-12-11T09:52:51;42.13;;;23.83;;
18387;SDS011;9320;50.256;19.026;2022-12-11T09:55:25;37.57;;;23.17;;
18387;SDS011;9320;50.256;19.026;2022-12-11T09:58:03;42.47;;;23.80;;
18387;SDS011;9320;50.256;19.026;2022-12-11T10:00:42;42.93;;;24.43;;
18387;SDS011;9320;50.256;19.026;2022-12-11T10:06:12;37.90;;;22.83;;
18387;SDS011;9320;50.256;19.026;2022-12-11T10:08:50;35.63;;;21.80;;
18387;SDS011;9320;50.256;19.026;2022-12-11T10:11:33;34.30;;;20.63;;
18387;SDS011;9320;50.256;19.026;2022-12-11T10:14:25;36.60;;;20.90;;
18387;SDS011;9320;50.256;19.026;2022-12-11T10:17:03;38.73;;;22.70;;
18387;SDS011;9320;50.256;19.026;2022-12-11T10:19:37;36.50;;;22.17;;
18387;SDS011;9320;50.256;19.026;2022-12-11T10:22:08;35.87;;;21.63;;
18387;SDS011;9320;50.256;19.026;2022-12-11T10:24:44;36.10;;;22.00;;
18387;SDS011;9320;50.256;19.026;2022-12-11T10:27:38;34.90;;;22.40;;
18387;SDS011;9320;50.256;19.026;2022-12-11T10:30:12;34.03;;;22.60;;
18387;SDS011;9320;50.256;19.026;2022-12-11T10:32:47;39.13;;;24.30;;
18387;SDS011;9320;50.256;19.026;2022-12-11T10:35:19;38.63;;;25.73;;
18387;SDS011;9320;50.256;19.026;2022-12-11T10:37:56;38.97;;;24.90;;
18387;SDS011;9320;50.256;19.026;2022-12-11T10:40:31;38.73;;;26.03;;
18387;SDS011;9320;50.256;19.026;2022-12-11T10:43:01;44.50;;;27.63;;
18387;SDS011;9320;50.256;19.026;2022-12-11T10:45:29;43.23;;;27.30;;
18387;SDS011;9320;50.256;19.026;2022-12-11T10:48:02;48.27;;;28.80;;
18387;SDS011;9320;50.256;19.026;2022-12-11T10:50:31;50.00;;;30.10;;
18387;SDS011;9320;50.256;19.026;2022-12-11T10:52:59;49.43;;;29.60;;
18387;SDS011;9320;50.256;19.026;2022-12-11T10:55:28;62.03;;;28.60;;
18387;SDS011;9320;50.256;19.026;2022-12-11T10:58:04;51.40;;;29.13;;
18387;SDS011;9320;50.256;19.026;2022-12-11T11:00:33;52.10;;;28.20;;
18387;SDS011;9320;50.256;19.026;2022-12-11T11:03:04;46.00;;;27.63;;
18387;SDS011;9320;50.256;19.026;2022-12-11T11:05:46;45.67;;;26.97;;
18387;SDS011;9320;50.256;19.026;2022-12-11T11:08:16;54.07;;;29.03;;
18387;SDS011;9320;50.256;19.026;2022-12-11T11:10:52;51.03;;;28.50;;
18387;SDS011;9320;50.256;19.026;2022-12-11T11:13:21;50.57;;;28.13;;
18387;SDS011;9320;50.256;19.026;2022-12-11T11:15:56;52.73;;;27.80;;
18387;SDS011;9320;50.256;19.026;2022-12-11T11:18:28;69.53;;;31.97;;
18387;SDS011;9320;50.256;19.026;2022-12-11T11:20:58;61.27;;;30.27;;
18387;SDS011;9320;50.256;19.026;2022-12-11T11:23:27;42.23;;;24.10;;
18387;SDS011;9320;50.256;19.026;2022-12-11T11:25:56;49.93;;;26.63;;
18387;SDS011;9320;50.256;19.026;2022-12-11T11:28:27;50.30;;;26.63;;
18387;SDS011;9320;50.256;19.026;2022-12-11T11:31:00;49.53;;;27.47;;
18387;SDS011;9320;50.256;19.026;2022-12-11T11:33:33;50.40;;;27.43;;
18387;SDS011;9320;50.256;19.026;2022-12-11T11:36:03;51.13;;;28.17;;
18387;SDS011;9320;50.256;19.026;2022-12-11T11:38:33;62.07;;;32.23;;
18387;SDS011;9320;50.256;19.026;2022-12-11T11:41:08;54.50;;;29.67;;
18387;SDS011;9320;50.256;19.026;2022-12-11T11:43:43;57.37;;;31.17;;
18387;SDS011;9320;50.256;19.026;2022-12-11T11:46:16;54.97;;;31.07;;
18387;SDS011;9320;50.256;19.026;2022-12-11T11:48:51;60.17;;;32.37;;
18387;SDS011;9320;50.256;19.026;2022-12-11T11:51:27;60.57;;;34.10;;
18387;SDS011;9320;50.256;19.026;2022-12-11T11:54:00;56.70;;;30.77;;
18387;SDS011;9320;50.256;19.026;2022-12-11T11:56:36;61.33;;;31.83;;
18387;SDS011;9320;50.256;19.026;2022-12-11T11:59:05;56.53;;;32.30;;
18387;SDS011;9320;50.256;19.026;2022-12-11T12:01:40;60.87;;;32.23;;
18387;SDS011;9320;50.256;19.026;2022-12-11T12:04:10;59.27;;;33.67;;
18387;SDS011;9320;50.256;19.026;2022-12-11T12:06:43;63.93;;;36.27;;
18387;SDS011;9320;50.256;19.026;2022-12-11T12:09:32;68.93;;;37.13;;
18387;SDS011;9320;50.256;19.026;2022-12-11T12:12:09;64.77;;;35.93;;
18387;SDS011;9320;50.256;19.026;2022-12-11T12:14:54;68.87;;;36.83;;
18387;SDS011;9320;50.256;19.026;2022-12-11T12:17:30;73.27;;;39.00;;
18387;SDS011;9320;50.256;19.026;2022-12-11T12:20:10;64.07;;;36.43;;
18387;SDS011;9320;50.256;19.026;2022-12-11T12:26:04;70.60;;;36.70;;
18387;SDS011;9320;50.256;19.026;2022-12-11T12:28:37;70.70;;;37.97;;
18387;SDS011;9320;50.256;19.026;2022-12-11T12:31:14;62.20;;;35.33;;
18387;SDS011;9320;50.256;19.026;2022-12-11T12:33:52;67.73;;;37.13;;
18387;SDS011;9320;50.256;19.026;2022-12-11T12:36:31;64.10;;;35.33;;
18387;SDS011;9320;50.256;19.026;2022-12-11T12:39:04;64.97;;;35.87;;
18387;SDS011;9320;50.256;19.026;2022-12-11T12:41:42;63.50;;;35.33;;
18387;SDS011;9320;50.256;19.026;2022-12-11T12:44:19;64.50;;;34.03;;
18387;SDS011;9320;50.256;19.026;2022-12-11T12:46:52;66.33;;;34.30;;
18387;SDS011;9320;50.256;19.026;2022-12-11T12:49:35;67.57;;;35.27;;
18387;SDS011;9320;50.256;19.026;2022-12-11T12:52:09;66.73;;;36.67;;
18387;SDS011;9320;50.256;19.026;2022-12-11T12:54:41;57.87;;;31.37;;
18387;SDS011;9320;50.256;19.026;2022-12-11T12:57:32;64.33;;;35.23;;
18387;SDS011;9320;50.256;19.026;2022-12-11T13:00:02;65.87;;;34.07;;
18387;SDS011;9320;50.256;19.026;2022-12-11T13:02:38;64.37;;;34.53;;
18387;SDS011;9320;50.256;19.026;2022-12-11T13:05:18;64.83;;;35.27;;
18387;SDS011;9320;50.256;19.026;2022-12-11T13:07:51;63.13;;;35.90;;
18387;SDS011;9320;50.256;19.026;2022-12-11T13:10:22;69.37;;;37.50;;
18387;SDS011;9320;50.256;19.026;2022-12-11T13:12:56;65.07;;;35.97;;
18387;SDS011;9320;50.256;19.026;2022-12-11T13:15:29;80.10;;;40.40;;
18387;SDS011;9320;50.256;19.026;2022-12-11T13:18:02;69.13;;;36.77;;
18387;SDS011;9320;50.256;19.026;2022-12-11T13:20:52;65.47;;;36.40;;
18387;SDS011;9320;50.256;19.026;2022-12-11T13:23:26;59.73;;;34.20;;
18387;SDS011;9320;50.256;19.026;2022-12-11T13:25:56;57.63;;;33.30;;
18387;SDS011;9320;50.256;19.026;2022-12-11T13:28:27;68.03;;;35.93;;
18387;SDS011;9320;50.256;19.026;2022-12-11T13:31:02;64.87;;;36.57;;
18387;SDS011;9320;50.256;19.026;2022-12-11T13:33:37;57.30;;;32.80;;
18387;SDS011;9320;50.256;19.026;2022-12-11T13:38:59;62.67;;;36.93;;
18387;SDS011;9320;50.256;19.026;2022-12-11T13:41:31;62.87;;;35.13;;
18387;SDS011;9320;50.256;19.026;2022-12-11T13:44:02;66.40;;;36.97;;
18387;SDS011;9320;50.256;19.026;2022-12-11T13:46:33;68.57;;;36.23;;
18387;SDS011;9320;50.256;19.026;2022-12-11T13:49:04;72.23;;;39.23;;
18387;SDS011;9320;50.256;19.026;2022-12-11T13:51:34;77.90;;;40.90;;
18387;SDS011;9320;50.256;19.026;2022-12-11T13:54:14;75.73;;;39.43;;
18387;SDS011;9320;50.256;19.026;2022-12-11T13:56:57;69.00;;;38.50;;
18387;SDS011;9320;50.256;19.026;2022-12-11T13:59:28;70.00;;;39.00;;
18387;SDS011;9320;50.256;19.026;2022-12-11T14:02:00;76.70;;;41.87;;
18387;SDS011;9320;50.256;19.026;2022-12-11T14:04:32;63.33;;;36.60;;
18387;SDS011;9320;50.256;19.026;2022-12-11T14:07:04;70.23;;;36.10;;
18387;SDS011;9320;50.256;19.026;2022-12-11T14:09:35;77.73;;;40.13;;
18387;SDS011;9320;50.256;19.026;2022-12-11T14:12:11;71.77;;;40.17;;
18387;SDS011;9320;50.256;19.026;2022-12-11T14:14:43;78.03;;;38.53;;
18387;SDS011;9320;50.256;19.026;2022-12-11T14:17:17;71.63;;;37.30;;
18387;SDS011;9320;50.256;19.026;2022-12-11T14:19:50;80.70;;;41.00;;
18387;SDS011;9320;50.256;19.026;2022-12-11T14:22:20;72.60;;;37.40;;
18387;SDS011;9320;50.256;19.026;2022-12-11T14:24:51;69.73;;;37.67;;
18387;SDS011;9320;50.256;19.026;2022-12-11T14:27:21;80.43;;;41.90;;
18387;SDS011;9320;50.256;19.026;2022-12-11T14:29:49;81.67;;;41.60;;
18387;SDS011;9320;50.256;19.026;2022-12-11T14:32:18;87.50;;;44.50;;
18387;SDS011;9320;50.256;19.026;2022-12-11T14:34:51;81.67;;;41.63;;
18387;SDS011;9320;50.256;19.026;2022-12-11T14:37:20;70.90;;;39.40;;
18387;SDS011;9320;50.256;19.026;2022-12-11T14:39:54;81.90;;;39.77;;
18387;SDS011;9320;50.256;19.026;2022-12-11T14:42:26;81.53;;;41.77;;
18387;SDS011;9320;50.256;19.026;2022-12-11T14:44:57;77.03;;;40.60;;
18387;SDS011;9320;50.256;19.026;2022-12-11T14:47:31;69.43;;;36.33;;
18387;SDS011;9320;50.256;19.026;2022-12-11T14:50:04;64.63;;;34.93;;
18387;SDS011;9320;50.256;19.026;2022-12-11T14:52:35;70.43;;;36.70;;
18387;SDS011;9320;50.256;19.026;2022-12-11T14:55:12;71.07;;;38.37;;
18387;SDS011;9320;50.256;19.026;2022-12-11T14:57:42;78.03;;;38.97;;
18387;SDS011;9320;50.256;19.026;2022-12-11T15:00:20;78.03;;;38.00;;
18387;SDS011;9320;50.256;19.026;2022-12-11T15:02:59;76.37;;;36.90;;